Time;durP1;ratioP1;P1;durP2;ratioP2;P2;SDS_P1;SDS_P2;PMS_P1;PMS_P2;Temp;Humidity;BMP_temperature;BMP_pressure;BME280_temperature;BME280_humidity;BME280_pressure;Samples;Min_cycle;Max_cycle;Signal;HPM_P1;HPM_P2
2022/09/08 00:01:25;;;;;;;1.30;1.20;;;21.10;99.90;;;;;;4946389;29;20169;-74
2022/09/08 00:03:51;;;;;;;2.42;1.30;;;21.10;99.90;;;;;;4942595;29;20196;-75
2022/09/08 00:06:19;;;;;;;1.92;1.30;;;21.10;99.90;;;;;;4930741;29;20194;-77
2022/09/08 00:08:46;;;;;;;2.17;1.20;;;21.10;99.90;;;;;;4940605;29;20250;-71
2022/09/08 00:11:24;;;;;;;2.00;1.30;;;21.10;99.90;;;;;;4961519;29;20181;-72
2022/09/08 00:13:52;;;;;;;2.22;1.23;;;21.10;99.90;;;;;;4942707;29;20236;-73
2022/09/08 00:16:18;;;;;;;3.00;1.25;;;21.10;99.90;;;;;;4942578;29;20185;-74
2022/09/08 00:18:44;;;;;;;1.73;1.30;;;21.10;99.90;;;;;;4947831;29;20268;-73
2022/09/08 00:21:10;;;;;;;2.75;1.60;;;21.10;99.90;;;;;;4939716;29;20193;-75
2022/09/08 00:23:38;;;;;;;1.65;1.50;;;21.10;99.90;;;;;;4961523;28;20197;-71
2022/09/08 00:26:04;;;;;;;1.95;1.45;;;21.10;99.90;;;;;;4958590;29;20189;-71
2022/09/08 00:28:32;;;;;;;2.17;1.42;;;21.10;99.90;;;;;;4942871;29;20292;-75
2022/09/08 00:31:02;;;;;;;1.95;1.40;;;21.10;99.90;;;;;;4941968;29;20253;-69
2022/09/08 00:33:30;;;;;;;1.98;1.48;;;21.10;99.90;;;;;;4962678;29;20205;-75
2022/09/08 00:35:56;;;;;;;2.92;1.50;;;21.10;99.90;;;;;;4942437;29;20186;-71
2022/09/08 00:38:26;;;;;;;3.08;1.50;;;21.10;99.90;;;;;;4931204;29;20173;-74
2022/09/08 00:40:56;;;;;;;3.75;1.40;;;21.10;99.90;;;;;;4944656;29;20208;-72
2022/09/08 00:43:44;;;;;;;1.40;1.30;;;21.10;99.90;;;;;;4962914;28;20188;-74
2022/09/08 00:46:12;;;;;;;2.60;1.33;;;21.10;99.90;;;;;;4943839;29;20257;-75
2022/09/08 00:48:43;;;;;;;2.05;1.33;;;21.10;99.90;;;;;;4946404;29;24042;-71
2022/09/08 00:51:09;;;;;;;3.13;1.45;;;21.10;99.90;;;;;;4940150;29;20192;-74
2022/09/08 00:53:40;;;;;;;2.03;1.38;;;21.10;99.90;;;;;;4958184;29;20287;-74
2022/09/08 00:56:08;;;;;;;1.45;1.30;;;21.10;99.90;;;;;;4954619;29;20209;-71
2022/09/08 00:58:38;;;;;;;1.50;1.25;;;21.10;99.90;;;;;;4946208;29;20292;-74
2022/09/08 01:01:05;;;;;;;1.67;1.40;;;21.10;99.90;;;;;;4940537;29;20220;-75
2022/09/08 01:03:31;;;;;;;2.55;1.40;;;21.10;99.90;;;;;;4941400;29;20185;-73
2022/09/08 01:06:14;;;;;;;2.17;1.45;;;21.10;99.90;;;;;;4945502;29;20181;-72
2022/09/08 01:14:56;;;;;;;2.60;1.60;;;21.10;99.90;;;;;;4935018;29;20280;-75
2022/09/08 01:17:28;;;;;;;2.28;1.33;;;21.10;99.90;;;;;;4957790;28;20244;-70
2022/09/08 01:19:58;;;;;;;2.00;1.58;;;21.10;99.90;;;;;;4934966;29;20184;-75
2022/09/08 01:22:41;;;;;;;1.80;1.48;;;21.10;99.90;;;;;;4941156;29;20249;-71
2022/09/08 01:25:27;;;;;;;2.42;1.45;;;21.10;99.90;;;;;;4952388;29;20196;-74
2022/09/08 01:28:04;;;;;;;2.97;1.48;;;21.10;99.90;;;;;;4945278;29;20201;-73
2022/09/08 01:30:31;;;;;;;1.90;1.60;;;21.10;99.90;;;;;;4941595;29;20208;-72
2022/09/08 01:32:56;;;;;;;1.70;1.50;;;21.00;99.90;;;;;;4944717;29;20196;-75
2022/09/08 01:35:54;;;;;;;1.90;1.38;;;21.00;99.90;;;;;;4968555;28;20181;-71
2022/09/08 01:38:19;;;;;;;3.05;1.40;;;21.00;99.90;;;;;;4932477;29;20203;-70
2022/09/08 01:40:45;;;;;;;2.10;1.60;;;21.00;99.90;;;;;;4948321;29;20208;-73
2022/09/08 01:43:11;;;;;;;1.75;1.40;;;21.00;99.90;;;;;;4948161;29;20212;-73
2022/09/08 01:45:39;;;;;;;2.15;1.40;;;21.00;99.90;;;;;;4945128;29;20245;-74
2022/09/08 01:48:08;;;;;;;1.50;1.30;;;21.00;99.90;;;;;;4944521;29;20190;-72
2022/09/08 01:50:34;;;;;;;1.92;1.30;;;21.00;99.90;;;;;;4946049;29;20198;-74
2022/09/08 01:53:00;;;;;;;4.20;1.67;;;21.00;99.90;;;;;;4948466;29;20228;-74
2022/09/08 01:55:28;;;;;;;2.30;1.30;;;21.00;99.90;;;;;;4965432;29;20177;-74
2022/09/08 01:57:58;;;;;;;1.73;1.58;;;21.00;99.90;;;;;;4947639;29;20177;-74
2022/09/08 02:00:24;;;;;;;1.38;1.25;;;20.90;99.90;;;;;;4947623;29;20272;-75
2022/09/08 02:02:49;;;;;;;2.22;1.40;;;20.90;99.90;;;;;;4944367;29;20189;-73
2022/09/08 02:05:15;;;;;;;2.20;1.50;;;21.00;99.90;;;;;;4948450;29;20173;-72
2022/09/08 02:07:45;;;;;;;1.77;1.40;;;21.00;99.90;;;;;;4964835;29;20330;-74
2022/09/08 02:10:13;;;;;;;1.88;1.42;;;21.00;99.90;;;;;;4946780;29;20207;-75
2022/09/08 02:12:39;;;;;;;2.05;1.60;;;21.00;99.90;;;;;;4964642;29;20177;-71
2022/09/08 02:15:07;;;;;;;3.63;1.48;;;21.00;99.90;;;;;;4963742;29;20201;-72
2022/09/08 02:17:33;;;;;;;1.80;1.20;;;21.00;99.90;;;;;;4959638;29;20228;-75
2022/09/08 02:20:01;;;;;;;2.42;1.48;;;21.00;99.90;;;;;;4936945;29;20186;-74
2022/09/08 02:22:30;;;;;;;2.05;1.30;;;21.00;99.90;;;;;;4937294;29;20182;-75
2022/09/08 02:24:56;;;;;;;2.50;1.30;;;20.90;99.90;;;;;;4942408;29;20297;-71
2022/09/08 02:27:24;;;;;;;1.73;1.27;;;20.90;99.90;;;;;;4947438;29;20189;-75
2022/09/08 02:29:49;;;;;;;2.33;1.55;;;20.90;99.90;;;;;;4941033;29;20197;-75
2022/09/08 02:32:15;;;;;;;1.83;1.33;;;20.90;99.90;;;;;;4942829;29;20209;-72
2022/09/08 02:34:43;;;;;;;2.05;1.33;;;20.80;99.90;;;;;;4940768;29;20217;-73
2022/09/08 02:37:11;;;;;;;1.88;1.17;;;20.80;99.90;;;;;;4949440;29;20181;-74
2022/09/08 02:39:36;;;;;;;2.05;1.30;;;20.70;99.90;;;;;;4946686;29;20188;-73
2022/09/08 02:42:06;;;;;;;1.73;1.20;;;20.70;99.90;;;;;;4944626;29;20173;-75
2022/09/08 02:44:34;;;;;;;1.30;1.20;;;20.60;99.90;;;;;;4944977;29;20205;-74
2022/09/08 02:47:00;;;;;;;1.70;1.23;;;20.70;99.90;;;;;;4941449;29;20178;-69
2022/09/08 02:49:26;;;;;;;3.28;1.60;;;20.60;99.90;;;;;;4947457;29;20246;-73
2022/09/08 02:51:51;;;;;;;2.40;1.50;;;20.60;99.90;;;;;;4940274;29;20201;-74
2022/09/08 02:54:17;;;;;;;1.85;1.45;;;20.50;99.90;;;;;;4947617;29;20201;-75
2022/09/08 02:56:43;;;;;;;2.53;1.42;;;20.50;99.90;;;;;;4944194;29;20215;-74
2022/09/08 02:59:09;;;;;;;3.53;1.30;;;20.50;99.90;;;;;;4942750;29;20248;-74
2022/09/08 03:01:35;;;;;;;3.03;1.40;;;20.40;99.90;;;;;;4954481;29;20208;-75
2022/09/08 03:04:05;;;;;;;1.95;1.30;;;20.30;99.90;;;;;;4945355;29;20189;-73
2022/09/08 03:06:34;;;;;;;2.13;1.40;;;20.30;99.90;;;;;;4947630;29;20193;-74
2022/09/08 03:09:01;;;;;;;2.60;1.63;;;20.20;99.90;;;;;;4940399;29;20181;-72
2022/09/08 03:11:28;;;;;;;2.60;1.50;;;20.20;99.90;;;;;;4963963;29;20196;-74
2022/09/08 03:13:55;;;;;;;1.80;1.38;;;20.10;99.90;;;;;;4946322;29;20243;-74
2022/09/08 03:16:23;;;;;;;2.45;1.52;;;20.10;99.90;;;;;;4940488;29;20178;-75
2022/09/08 03:18:50;;;;;;;3.40;1.83;;;20.10;99.90;;;;;;4962110;29;20241;-72
2022/09/08 03:21:15;;;;;;;3.05;1.65;;;20.10;99.90;;;;;;4947460;29;20267;-75
2022/09/08 03:23:41;;;;;;;1.75;1.42;;;20.00;99.90;;;;;;4945752;29;20196;-73
2022/09/08 03:26:12;;;;;;;2.15;1.70;;;20.00;99.90;;;;;;4942665;29;20213;-75
2022/09/08 03:28:41;;;;;;;2.97;1.60;;;20.00;99.90;;;;;;4941427;29;20177;-75
2022/09/08 03:31:13;;;;;;;3.47;1.75;;;19.90;99.90;;;;;;4942030;29;20228;-75
2022/09/08 03:33:40;;;;;;;3.28;1.60;;;19.90;99.90;;;;;;4944716;29;20392;-74
2022/09/08 03:36:13;;;;;;;5.47;3.92;;;19.80;99.90;;;;;;4939268;29;20197;-75
2022/09/08 03:38:41;;;;;;;3.33;2.60;;;19.80;99.90;;;;;;4941716;29;20192;-74
2022/09/08 03:41:12;;;;;;;4.40;3.47;;;19.80;99.90;;;;;;4958762;29;20500;-75
2022/09/08 03:43:43;;;;;;;5.25;3.00;;;19.70;99.90;;;;;;4943268;29;20197;-75
2022/09/08 03:46:09;;;;;;;3.20;2.60;;;19.70;99.90;;;;;;4935513;29;20213;-75
2022/09/08 03:48:35;;;;;;;3.95;2.65;;;19.70;99.90;;;;;;4943287;29;20187;-76
2022/09/08 03:51:17;;;;;;;2.67;1.73;;;19.70;99.90;;;;;;4954687;29;20177;-73
2022/09/08 03:53:46;;;;;;;12.70;10.63;;;19.70;99.90;;;;;;4943723;29;20232;-81
2022/09/08 03:56:15;;;;;;;6.72;6.03;;;19.70;99.90;;;;;;4944741;29;20174;-76
2022/09/08 03:58:42;;;;;;;4.80;3.83;;;19.60;99.90;;;;;;4957991;28;20189;-76
2022/09/08 04:01:12;;;;;;;4.07;2.67;;;19.60;99.90;;;;;;4940858;29;20177;-74
2022/09/08 04:03:39;;;;;;;2.88;2.47;;;19.60;99.90;;;;;;4939328;29;20251;-76
2022/09/08 04:06:07;;;;;;;2.88;1.85;;;19.60;99.90;;;;;;4945429;29;20265;-77
2022/09/08 04:08:33;;;;;;;2.88;1.90;;;19.60;99.90;;;;;;4942934;29;20240;-76
2022/09/08 04:10:58;;;;;;;2.35;1.70;;;19.60;99.90;;;;;;4938339;29;20272;-76
2022/09/08 04:13:27;;;;;;;4.43;2.15;;;19.60;99.90;;;;;;4947714;29;20281;-76
2022/09/08 04:15:56;;;;;;;4.72;3.70;;;19.60;99.90;;;;;;4944738;29;20196;-77
2022/09/08 04:18:21;;;;;;;3.35;2.70;;;19.60;99.90;;;;;;4940321;29;20196;-76
2022/09/08 04:20:56;;;;;;;3.70;3.15;;;19.60;99.90;;;;;;4924987;29;20206;-76
2022/09/08 04:23:22;;;;;;;3.00;2.00;;;19.60;99.90;;;;;;4944631;29;20185;-75
2022/09/08 04:26:02;;;;;;;1.80;1.50;;;19.60;99.90;;;;;;4935628;29;20216;-77
2022/09/08 04:28:31;;;;;;;2.90;1.80;;;19.50;99.90;;;;;;4950593;29;20222;-76
2022/09/08 04:30:59;;;;;;;2.95;1.60;;;19.50;99.90;;;;;;4939137;29;20275;-74
2022/09/08 04:33:25;;;;;;;2.10;1.40;;;19.50;99.90;;;;;;4945456;29;20433;-75
2022/09/08 04:35:50;;;;;;;1.60;1.30;;;19.50;99.90;;;;;;4942024;29;20193;-76
2022/09/08 04:38:16;;;;;;;1.85;1.38;;;19.50;99.90;;;;;;4939820;29;20182;-74
2022/09/08 04:40:41;;;;;;;2.45;1.50;;;19.50;99.90;;;;;;4946084;29;20241;-74
2022/09/08 04:43:12;;;;;;;2.33;1.55;;;19.50;99.90;;;;;;4941364;29;20189;-74
2022/09/08 04:45:37;;;;;;;1.98;1.30;;;19.50;99.90;;;;;;4935411;29;20247;-74
2022/09/08 04:48:03;;;;;;;2.38;1.25;;;19.50;99.90;;;;;;4953287;29;20212;-71
2022/09/08 04:50:29;;;;;;;2.83;1.55;;;19.40;99.90;;;;;;4953872;29;20260;-74
2022/09/08 04:52:57;;;;;;;1.88;1.65;;;19.40;99.90;;;;;;4940059;29;20186;-74
2022/09/08 04:55:23;;;;;;;3.00;1.50;;;19.40;99.90;;;;;;4931385;29;20182;-74
2022/09/08 04:57:48;;;;;;;2.38;1.52;;;19.40;99.90;;;;;;4942266;29;20233;-71
2022/09/08 05:00:18;;;;;;;3.40;1.73;;;19.30;99.90;;;;;;4945707;29;20193;-74
2022/09/08 05:02:48;;;;;;;3.17;1.65;;;19.30;99.90;;;;;;4928496;29;20223;-74
2022/09/08 05:05:14;;;;;;;3.30;1.80;;;19.30;99.90;;;;;;4941854;29;20182;-74
2022/09/08 05:07:42;;;;;;;3.05;1.77;;;19.30;99.90;;;;;;4943779;29;20200;-74
2022/09/08 05:10:07;;;;;;;2.97;1.85;;;19.20;99.90;;;;;;4939112;29;20248;-74
2022/09/08 05:12:36;;;;;;;2.33;1.63;;;19.20;99.90;;;;;;4948399;29;20202;-73
2022/09/08 05:15:01;;;;;;;2.35;1.55;;;19.20;99.90;;;;;;4943046;29;20219;-74
2022/09/08 05:17:29;;;;;;;2.63;1.63;;;19.20;99.90;;;;;;4964967;29;20189;-72
2022/09/08 05:19:57;;;;;;;2.33;1.80;;;19.20;99.90;;;;;;4941898;29;20235;-72
2022/09/08 05:22:22;;;;;;;1.60;1.38;;;19.20;99.90;;;;;;4950592;29;20209;-72
2022/09/08 05:24:52;;;;;;;3.00;1.50;;;19.20;99.90;;;;;;4962242;29;20222;-73
2022/09/08 05:27:18;;;;;;;2.75;1.70;;;19.20;99.90;;;;;;4950051;29;20269;-73
2022/09/08 05:29:43;;;;;;;2.03;1.80;;;19.20;99.90;;;;;;4949553;29;20213;-73
2022/09/08 05:32:12;;;;;;;2.65;1.90;;;19.10;99.90;;;;;;4949295;29;20197;-72
2022/09/08 05:34:39;;;;;;;2.38;1.88;;;19.10;99.90;;;;;;4951801;29;20201;-72
2022/09/08 05:37:06;;;;;;;2.75;1.85;;;19.10;99.90;;;;;;4949484;29;20202;-72
2022/09/08 05:39:34;;;;;;;2.15;1.92;;;19.00;99.90;;;;;;4944652;29;20174;-73
2022/09/08 05:42:03;;;;;;;2.13;1.70;;;19.10;99.90;;;;;;4945144;29;20186;-73
2022/09/08 05:44:33;;;;;;;3.15;1.95;;;19.10;99.90;;;;;;4954642;29;20221;-72
2022/09/08 05:46:59;;;;;;;2.75;1.73;;;19.10;99.90;;;;;;4948846;29;20173;-72
2022/09/08 05:49:24;;;;;;;2.22;1.70;;;19.10;99.90;;;;;;4965104;29;20188;-72
2022/09/08 05:51:52;;;;;;;2.47;1.80;;;19.10;99.90;;;;;;4945938;29;20209;-73
2022/09/08 05:54:22;;;;;;;2.80;1.83;;;19.00;99.90;;;;;;4941363;29;20198;-73
2022/09/08 05:56:53;;;;;;;3.67;1.85;;;19.00;99.90;;;;;;4948218;29;20186;-73
2022/09/08 05:59:20;;;;;;;2.72;1.55;;;19.10;99.90;;;;;;4944985;29;20234;-72
2022/09/08 06:01:53;;;;;;;2.83;1.88;;;19.00;99.90;;;;;;4952561;29;20197;-72
2022/09/08 06:04:19;;;;;;;2.58;1.85;;;19.00;99.90;;;;;;4949424;29;20198;-72
2022/09/08 06:06:46;;;;;;;2.95;1.77;;;19.00;99.90;;;;;;4963057;29;20173;-74
2022/09/08 06:09:12;;;;;;;2.80;1.70;;;19.00;99.90;;;;;;4959186;29;20203;-75
2022/09/08 06:11:41;;;;;;;2.80;1.58;;;19.10;99.90;;;;;;4962729;28;20189;-73
2022/09/08 06:14:06;;;;;;;2.10;1.50;;;19.10;99.90;;;;;;4961361;29;20224;-74
2022/09/08 06:16:36;;;;;;;1.85;1.60;;;19.10;99.90;;;;;;4964074;29;20233;-73
2022/09/08 06:19:02;;;;;;;1.80;1.40;;;19.10;99.90;;;;;;4944432;29;20173;-74
2022/09/08 06:21:32;;;;;;;1.63;1.38;;;19.10;99.90;;;;;;4940248;29;20169;-75
2022/09/08 06:24:03;;;;;;;2.30;1.45;;;19.10;99.90;;;;;;4963722;29;20189;-75
2022/09/08 06:26:48;;;;;;;2.42;1.30;;;19.00;99.90;;;;;;4947990;29;20209;-73
2022/09/08 06:29:34;;;;;;;1.92;1.60;;;19.10;99.90;;;;;;4956706;29;20183;-72
2022/09/08 06:32:09;;;;;;;4.47;1.50;;;19.10;99.90;;;;;;4945644;29;20181;-73
2022/09/08 06:34:44;;;;;;;2.00;1.40;;;19.10;99.90;;;;;;4961713;29;20208;-74
2022/09/08 06:37:38;;;;;;;1.40;1.30;;;19.10;99.90;;;;;;4940063;29;20173;-73
2022/09/08 06:40:22;;;;;;;3.20;1.73;;;19.10;99.90;;;;;;4945237;29;20184;-72
2022/09/08 06:42:57;;;;;;;2.85;1.70;;;19.10;99.90;;;;;;4951299;29;20217;-73
2022/09/08 06:45:33;;;;;;;2.28;1.50;;;19.10;99.90;;;;;;4960484;29;20208;-74
2022/09/08 06:48:15;;;;;;;1.85;1.45;;;19.20;99.90;;;;;;4957361;29;20213;-73
2022/09/08 06:50:55;;;;;;;1.98;1.63;;;19.20;99.90;;;;;;4947355;29;20173;-74
2022/09/08 06:53:29;;;;;;;1.20;1.10;;;19.20;99.90;;;;;;4946182;29;20197;-73
2022/09/08 06:56:16;;;;;;;2.70;1.50;;;19.20;99.90;;;;;;4953473;29;20209;-73
2022/09/08 06:58:44;;;;;;;2.08;1.20;;;19.30;99.90;;;;;;4945845;29;20177;-73
2022/09/08 07:01:34;;;;;;;1.75;1.20;;;19.30;99.90;;;;;;4947200;29;20233;-74
2022/09/08 07:04:10;;;;;;;1.65;1.20;;;19.40;99.90;;;;;;4943002;29;20205;-74
2022/09/08 07:06:49;;;;;;;1.83;1.52;;;19.40;99.90;;;;;;4932067;29;20216;-74
2022/09/08 07:09:37;;;;;;;2.28;1.42;;;19.40;99.90;;;;;;4952543;29;20297;-74
2022/09/08 07:12:06;;;;;;;3.72;1.60;;;19.50;99.90;;;;;;4933933;29;20270;-73
2022/09/08 07:14:54;;;;;;;1.98;1.30;;;19.50;99.90;;;;;;4937553;29;20197;-74
2022/09/08 07:17:51;;;;;;;1.88;1.23;;;19.50;99.90;;;;;;4942451;29;20197;-73
2022/09/08 07:20:22;;;;;;;1.60;1.23;;;19.60;99.90;;;;;;4945011;29;20178;-74
2022/09/08 07:22:47;;;;;;;2.33;1.30;;;19.60;99.90;;;;;;4934488;29;20186;-74
2022/09/08 07:25:25;;;;;;;2.22;1.40;;;19.60;99.90;;;;;;4940075;29;20192;-75
2022/09/08 07:28:01;;;;;;;1.80;1.23;;;19.70;99.90;;;;;;4946267;29;20184;-72
2022/09/08 07:30:26;;;;;;;1.90;1.30;;;19.70;99.90;;;;;;4955072;29;20204;-75
2022/09/08 07:33:01;;;;;;;2.17;1.23;;;19.80;99.90;;;;;;4943749;28;20181;-74
2022/09/08 07:35:50;;;;;;;1.40;1.10;;;19.80;99.90;;;;;;4958743;29;20188;-74
2022/09/08 07:38:27;;;;;;;2.35;1.40;;;19.90;99.90;;;;;;4930388;29;20233;-75
2022/09/08 07:40:58;;;;;;;2.20;1.38;;;19.90;99.90;;;;;;4941584;29;20188;-73
2022/09/08 07:43:24;;;;;;;1.65;1.08;;;20.00;99.90;;;;;;4952939;29;20188;-76
2022/09/08 07:46:02;;;;;;;1.35;1.20;;;20.00;99.90;;;;;;4959183;29;20208;-70
2022/09/08 07:48:44;;;;;;;1.20;1.00;;;20.00;99.90;;;;;;4955164;29;20370;-76
2022/09/08 07:51:21;;;;;;;1.65;0.88;;;20.10;99.90;;;;;;4942887;29;20169;-76
2022/09/08 07:54:20;;;;;;;2.08;1.20;;;20.10;99.90;;;;;;4934449;29;20206;-75
2022/09/08 07:56:53;;;;;;;2.28;1.15;;;20.10;99.90;;;;;;4942725;29;20192;-75
2022/09/08 07:59:30;;;;;;;0.98;0.88;;;20.10;99.90;;;;;;4930949;29;20216;-75
2022/09/08 08:02:31;;;;;;;1.48;0.85;;;20.10;99.90;;;;;;4945068;29;20271;-73
2022/09/08 08:05:21;;;;;;;2.13;1.00;;;20.10;99.90;;;;;;4956115;29;20277;-75
2022/09/08 08:08:22;;;;;;;1.83;1.00;;;20.10;99.90;;;;;;4925580;29;20293;-74
2022/09/08 08:11:12;;;;;;;1.70;1.10;;;20.10;99.90;;;;;;4869591;29;20218;-71
2022/09/08 08:13:48;;;;;;;1.48;1.30;;;20.10;99.90;;;;;;4927519;29;20256;-77
2022/09/08 08:16:21;;;;;;;1.60;1.10;;;20.10;99.90;;;;;;4956172;29;20185;-76
2022/09/08 08:19:08;;;;;;;1.30;1.10;;;20.10;99.90;;;;;;4946245;29;20186;-76
2022/09/08 08:21:48;;;;;;;2.15;1.30;;;20.10;99.90;;;;;;4938485;29;20217;-76
2022/09/08 08:24:30;;;;;;;3.40;1.30;;;20.20;99.90;;;;;;4952623;29;20200;-76
2022/09/08 08:27:06;;;;;;;3.28;1.60;;;20.20;99.90;;;;;;4942300;29;20185;-75
2022/09/08 08:29:43;;;;;;;2.28;1.50;;;20.20;99.90;;;;;;4944627;29;20180;-76
2022/09/08 08:32:13;;;;;;;3.08;1.45;;;20.20;99.90;;;;;;4958523;29;20201;-77
2022/09/08 08:34:57;;;;;;;2.50;1.40;;;20.30;99.90;;;;;;4938494;29;20213;-77
2022/09/08 08:37:29;;;;;;;2.08;1.17;;;20.30;99.90;;;;;;4944924;29;20169;-77
2022/09/08 08:39:55;;;;;;;2.75;1.40;;;20.30;99.90;;;;;;4961356;29;20174;-76
2022/09/08 08:42:55;;;;;;;1.85;1.20;;;20.40;99.90;;;;;;4958080;29;20284;-76
2022/09/08 08:45:35;;;;;;;1.80;1.02;;;20.40;99.90;;;;;;4958581;28;20177;-74
2022/09/08 08:48:25;;;;;;;1.63;1.20;;;20.40;99.90;;;;;;4938228;29;20177;-74
2022/09/08 08:51:06;;;;;;;1.63;1.10;;;20.40;99.90;;;;;;4943087;29;20200;-74
2022/09/08 08:54:11;;;;;;;1.45;1.10;;;20.40;99.90;;;;;;4940129;29;20213;-75
2022/09/08 08:57:10;;;;;;;1.65;1.13;;;20.40;99.90;;;;;;4931238;29;20213;-77
2022/09/08 09:00:28;;;;;;;1.67;1.33;;;20.40;99.90;;;;;;4939294;29;20207;-76
2022/09/08 09:03:16;;;;;;;1.88;1.15;;;20.50;99.90;;;;;;4916878;29;20250;-77
2022/09/08 09:06:13;;;;;;;2.28;1.20;;;20.50;99.90;;;;;;4942934;29;20264;-78
2022/09/08 09:09:03;;;;;;;2.80;1.20;;;20.60;99.90;;;;;;4943484;29;20177;-78
2022/09/08 09:11:51;;;;;;;2.13;1.00;;;20.70;99.90;;;;;;4957416;29;20181;-75
2022/09/08 09:14:28;;;;;;;2.15;0.80;;;20.80;99.90;;;;;;4926237;29;20264;-74
2022/09/08 09:17:02;;;;;;;1.95;0.90;;;20.90;99.90;;;;;;4946534;29;20181;-76
2022/09/08 09:19:33;;;;;;;1.92;1.10;;;20.90;99.90;;;;;;4943700;29;20161;-75
2022/09/08 09:22:39;;;;;;;1.38;0.90;;;21.00;99.90;;;;;;4945857;29;20312;-77
2022/09/08 09:25:18;;;;;;;1.33;0.80;;;21.10;99.90;;;;;;4930913;29;20205;-76
2022/09/08 09:27:53;;;;;;;1.13;0.60;;;21.10;99.90;;;;;;4940495;29;20178;-75
2022/09/08 09:30:26;;;;;;;1.15;0.60;;;21.20;99.90;;;;;;4952048;29;20268;-74
2022/09/08 09:33:15;;;;;;;1.52;0.52;;;21.30;99.90;;;;;;4935047;29;20284;-77
2022/09/08 09:36:02;;;;;;;1.35;0.60;;;21.40;99.90;;;;;;4959838;29;20185;-74
2022/09/08 09:38:46;;;;;;;0.85;0.52;;;21.40;99.90;;;;;;4945906;29;20244;-76
2022/09/08 09:41:32;;;;;;;1.15;0.50;;;21.50;99.90;;;;;;4947986;29;20177;-76
2022/09/08 09:44:23;;;;;;;2.58;0.57;;;21.50;99.90;;;;;;4943278;29;20196;-74
2022/09/08 09:47:07;;;;;;;2.22;0.70;;;21.50;99.90;;;;;;4944439;29;20255;-76
2022/09/08 09:50:09;;;;;;;0.85;0.52;;;21.50;99.90;;;;;;4942397;29;20185;-77
2022/09/08 09:53:16;;;;;;;1.08;0.50;;;21.50;99.90;;;;;;4934625;29;20181;-75
2022/09/08 09:56:21;;;;;;;1.90;0.52;;;21.50;99.90;;;;;;4940693;28;20277;-75
2022/09/08 09:59:05;;;;;;;0.57;0.50;;;21.50;99.90;;;;;;4949253;29;20552;-76
2022/09/08 10:01:51;;;;;;;1.42;0.60;;;21.60;99.90;;;;;;4942707;29;20296;-77
2022/09/08 10:04:29;;;;;;;0.73;0.50;;;21.60;99.90;;;;;;4935742;29;20212;-76
2022/09/08 10:07:14;;;;;;;3.78;0.52;;;21.60;99.90;;;;;;4945145;29;20216;-77
2022/09/08 10:10:14;;;;;;;0.88;0.40;;;21.70;99.90;;;;;;4960352;29;20185;-75
2022/09/08 10:13:17;;;;;;;1.35;0.50;;;21.70;99.90;;;;;;4947622;29;20173;-75
2022/09/08 10:16:10;;;;;;;0.65;0.45;;;21.70;99.90;;;;;;4961468;29;20193;-78
2022/09/08 10:18:55;;;;;;;1.00;0.40;;;21.60;99.90;;;;;;4960943;29;20188;-75
2022/09/08 10:21:32;;;;;;;0.55;0.40;;;21.70;99.90;;;;;;4963971;29;20173;-75
2022/09/08 10:24:10;;;;;;;1.23;0.57;;;21.70;99.90;;;;;;4948030;29;20273;-79
2022/09/08 10:26:41;;;;;;;1.83;0.85;;;21.80;99.90;;;;;;4941697;29;20284;-77
2022/09/08 10:29:26;;;;;;;1.30;0.68;;;22.00;99.90;;;;;;4950397;29;20180;-75
2022/09/08 10:32:17;;;;;;;1.17;0.70;;;22.40;99.90;;;;;;4941298;29;20192;-75
2022/09/08 10:35:08;;;;;;;1.10;0.60;;;22.90;99.90;;;;;;4948054;29;20209;-75
2022/09/08 10:37:43;;;;;;;1.08;0.40;;;23.60;99.90;;;;;;4963693;29;20217;-74
2022/09/08 10:40:33;;;;;;;2.42;0.75;;;23.90;99.90;;;;;;4938758;29;20212;-78
2022/09/08 10:43:21;;;;;;;1.65;0.60;;;24.00;99.90;;;;;;4926502;29;20204;-76
2022/09/08 10:46:04;;;;;;;1.45;0.60;;;24.00;99.90;;;;;;4948461;29;20213;-71
2022/09/08 10:49:04;;;;;;;0.73;0.50;;;23.80;99.90;;;;;;4930673;29;20181;-71
2022/09/08 10:51:36;;;;;;;0.73;0.52;;;23.80;99.90;;;;;;4960387;29;20177;-75
2022/09/08 10:54:20;;;;;;;0.60;0.35;;;23.90;99.90;;;;;;4943842;29;20237;-77
2022/09/08 10:56:48;;;;;;;1.33;0.60;;;24.10;99.90;;;;;;4948040;29;20181;-75
2022/09/08 10:59:31;;;;;;;0.98;0.50;;;24.30;99.90;;;;;;4964763;29;20280;-74
2022/09/08 11:02:13;;;;;;;0.68;0.38;;;24.40;99.90;;;;;;4927054;29;20184;-77
2022/09/08 11:05:15;;;;;;;0.82;0.55;;;24.30;99.90;;;;;;4950429;29;20245;-74
2022/09/08 11:07:43;;;;;;;1.13;0.40;;;24.20;99.90;;;;;;4948790;29;20215;-75
2022/09/08 11:10:22;;;;;;;0.85;0.43;;;24.10;99.90;;;;;;4939749;29;20281;-78
2022/09/08 11:12:49;;;;;;;0.68;0.40;;;23.90;99.90;;;;;;4947828;29;20213;-75
2022/09/08 11:15:49;;;;;;;1.20;0.50;;;23.80;99.90;;;;;;4961161;29;20197;-76
2022/09/08 11:18:35;;;;;;;0.82;0.40;;;23.70;99.90;;;;;;4959240;29;20173;-76
2022/09/08 11:21:03;;;;;;;0.85;0.50;;;23.90;99.90;;;;;;4947958;29;20261;-75
2022/09/08 11:23:54;;;;;;;0.80;0.40;;;24.10;99.90;;;;;;4950402;29;20190;-75
2022/09/08 11:26:34;;;;;;;1.00;0.50;;;24.20;99.90;;;;;;4958127;29;20253;-78
2022/09/08 11:29:02;;;;;;;0.88;0.32;;;24.30;99.90;;;;;;4947006;29;20178;-75
2022/09/08 11:31:56;;;;;;;1.73;0.70;;;24.40;99.90;;;;;;4949635;29;20185;-75
2022/09/08 11:34:43;;;;;;;0.80;0.40;;;24.70;99.90;;;;;;4916141;29;20221;-76
2022/09/08 11:37:15;;;;;;;0.80;0.30;;;24.80;99.90;;;;;;4950968;29;20189;-77
2022/09/08 11:40:37;;;;;;;1.27;0.40;;;25.00;99.90;;;;;;4944660;29;20198;-77
2022/09/08 11:43:12;;;;;;;1.58;0.60;;;25.00;99.90;;;;;;4903347;29;20186;-76
2022/09/08 11:46:21;;;;;;;0.80;0.40;;;24.80;99.90;;;;;;4912513;29;20181;-73
2022/09/08 11:48:59;;;;;;;0.90;0.47;;;24.70;99.90;;;;;;4880514;29;20199;-76
2022/09/08 11:51:40;;;;;;;0.98;0.30;;;24.40;99.90;;;;;;4964064;29;20173;-75
2022/09/08 11:54:25;;;;;;;0.70;0.30;;;24.20;99.90;;;;;;4947757;29;20205;-78
2022/09/08 11:57:12;;;;;;;0.75;0.40;;;24.00;99.90;;;;;;4928153;29;20197;-78
2022/09/08 12:00:13;;;;;;;1.25;0.40;;;23.80;99.90;;;;;;4930899;29;20255;-76
2022/09/08 12:03:17;;;;;;;1.23;0.50;;;23.70;99.90;;;;;;4918892;29;20379;-77
2022/09/08 12:06:03;;;;;;;1.23;0.40;;;23.60;99.90;;;;;;4881703;29;20186;-77
2022/09/08 12:08:59;;;;;;;0.52;0.40;;;23.60;99.90;;;;;;4929793;29;20193;-76
2022/09/08 12:11:51;;;;;;;0.40;0.28;;;23.60;99.90;;;;;;4958068;29;20199;-77
2022/09/08 12:14:39;;;;;;;1.25;0.45;;;23.60;99.90;;;;;;4960751;29;20216;-78
2022/09/08 12:17:23;;;;;;;0.47;0.40;;;23.70;99.90;;;;;;4934528;29;20186;-73
2022/09/08 12:20:24;;;;;;;0.73;0.50;;;23.50;99.90;;;;;;4935870;29;20208;-77
2022/09/08 12:23:05;;;;;;;1.25;0.50;;;23.40;99.90;;;;;;4937080;29;20184;-76
2022/09/08 12:25:52;;;;;;;1.45;0.40;;;23.30;99.90;;;;;;4937942;29;20196;-75
2022/09/08 12:28:47;;;;;;;1.20;0.40;;;23.20;99.90;;;;;;4940464;29;20174;-75
2022/09/08 12:31:53;;;;;;;0.45;0.32;;;23.10;99.90;;;;;;4923727;29;20367;-76
2022/09/08 12:34:36;;;;;;;1.20;0.47;;;23.00;99.90;;;;;;4951712;29;20202;-74
2022/09/08 12:37:10;;;;;;;0.75;0.50;;;22.80;99.90;;;;;;4939628;29;20256;-72
2022/09/08 12:39:47;;;;;;;2.45;0.73;;;22.60;99.90;;;;;;4962096;29;20201;-71
2022/09/08 12:42:18;;;;;;;0.93;0.60;;;22.30;99.90;;;;;;4941382;29;20174;-72
2022/09/08 12:44:54;;;;;;;1.02;0.40;;;21.80;99.90;;;;;;4945503;29;20178;-73
2022/09/08 12:47:44;;;;;;;1.33;0.60;;;21.30;99.90;;;;;;4939976;29;20236;-73
2022/09/08 12:50:19;;;;;;;1.33;0.57;;;21.00;99.90;;;;;;4945356;29;20185;-68
2022/09/08 12:53:06;;;;;;;0.82;0.50;;;20.70;99.90;;;;;;4941768;29;20205;-73
2022/09/08 12:55:45;;;;;;;1.20;0.50;;;20.60;99.90;;;;;;4948763;29;20193;-73
2022/09/08 12:58:47;;;;;;;1.10;0.60;;;20.70;99.90;;;;;;4931953;29;20201;-74
2022/09/08 13:01:40;;;;;;;0.90;0.68;;;20.90;99.90;;;;;;4945659;29;20165;-72
2022/09/08 13:04:21;;;;;;;2.33;0.70;;;21.10;99.90;;;;;;4979828;28;20177;-73
2022/09/08 13:06:52;;;;;;;1.23;0.60;;;21.50;99.90;;;;;;4945984;29;20202;-74
2022/09/08 13:09:23;;;;;;;0.90;0.50;;;21.70;99.90;;;;;;4956143;29;20221;-74
2022/09/08 13:12:30;;;;;;;2.05;0.70;;;22.00;99.90;;;;;;4937585;29;20181;-73
2022/09/08 13:15:05;;;;;;;0.77;0.50;;;22.30;99.90;;;;;;4884357;29;20206;-71
2022/09/08 13:18:13;;;;;;;1.55;0.60;;;22.70;99.90;;;;;;4891731;29;20182;-73
2022/09/08 13:20:46;;;;;;;3.28;0.77;;;23.00;99.90;;;;;;4933412;29;20197;-73
2022/09/08 13:23:24;;;;;;;1.85;0.57;;;23.30;99.90;;;;;;4935464;29;20237;-74
2022/09/08 13:26:02;;;;;;;0.50;0.40;;;23.30;99.90;;;;;;4934714;29;20183;-73
2022/09/08 13:28:33;;;;;;;1.27;0.47;;;23.40;99.90;;;;;;4950096;29;20189;-75
2022/09/08 13:31:03;;;;;;;2.35;0.70;;;23.40;99.90;;;;;;4945680;29;20189;-74
2022/09/08 13:33:55;;;;;;;1.55;0.77;;;23.40;99.90;;;;;;4967628;29;20242;-75
2022/09/08 13:36:35;;;;;;;1.33;0.60;;;23.60;99.90;;;;;;4953571;29;20182;-75
2022/09/08 13:39:41;;;;;;;2.15;0.70;;;23.70;99.90;;;;;;4956882;29;20210;-76
2022/09/08 13:42:38;;;;;;;0.98;0.57;;;23.70;99.90;;;;;;4902347;29;20268;-76